Time;durP1;ratioP1;P1;durP2;ratioP2;P2;SDS_P1;SDS_P2;PMS_P1;PMS_P2;Temp;Humidity;BMP_temperature;BMP_pressure;BME280_temperature;BME280_humidity;BME280_pressure;Samples;Min_cycle;Max_cycle;Signal;HPM_P1;HPM_P2
2022/05/28 00:04:36;;;;;;;;;;;;;;;14.87;43.65;100613.03;10367881;28;20109;-63
2022/05/28 00:09:38;;;;;;;;;;;;;;;14.84;44.27;100614.16;10368801;28;19962;-63
2022/05/28 00:14:39;;;;;;;;;;;;;;;14.95;43.74;100609.63;10368471;28;19928;-63
2022/05/28 00:19:41;;;;;;;;;;;;;;;14.88;43.41;100613.88;10367399;28;19979;-61
2022/05/28 00:24:42;;;;;;;;;;;;;;;14.85;44.17;100599.78;10368500;28;19931;-63
2022/05/28 00:29:44;;;;;;;;;;;;;;;14.86;43.98;100595.25;10369366;28;19925;-62
2022/05/28 00:34:45;;;;;;;;;;;;;;;14.80;44.56;100595.81;10369659;28;19925;-63
2022/05/28 00:39:46;;;;;;;;;;;;;;;14.83;44.17;100596.41;10370175;28;19936;-64
2022/05/28 00:44:48;;;;;;;;;;;;;;;14.77;44.04;100591.63;10370426;28;19925;-64
2022/05/28 00:49:50;;;;;;;;;;;;;;;14.73;44.33;100589.38;10365998;28;19925;-63
2022/05/28 00:54:52;;;;;;;;;;;;;;;14.72;44.46;100588.50;10366571;28;19921;-62
2022/05/28 00:59:54;;;;;;;;;;;;;;;14.70;44.93;100587.81;10373114;28;19925;-61
2022/05/28 01:04:59;;;;;;;;;;;;;;;14.48;44.60;100548.72;10375052;28;20022;-63
2022/05/28 01:10:21;;;;;;;;;;;;;;;14.66;44.75;100583.72;10374206;28;19936;-63
2022/05/28 01:15:31;;;;;;;;;;;;;;;14.56;44.87;100586.38;10373280;28;19935;-63
2022/05/28 01:20:41;;;;;;;;;;;;;;;14.38;45.62;100588.91;10372054;28;19924;-62
2022/05/28 01:25:48;;;;;;;;;;;;;;;14.35;45.76;100581.13;10373768;28;19965;-63
2022/05/28 01:30:51;;;;;;;;;;;;;;;14.35;45.83;100575.78;10372004;28;20050;-63
2022/05/28 01:35:52;;;;;;;;;;;;;;;14.37;45.56;100567.63;10372782;28;19925;-62
2022/05/28 01:40:54;;;;;;;;;;;;;;;14.26;45.81;100560.56;10374014;28;19929;-65
2022/05/28 01:45:55;;;;;;;;;;;;;;;14.27;45.93;100560.41;10373857;28;20000;-60
2022/05/28 01:50:58;;;;;;;;;;;;;;;14.30;46.20;100551.25;10372794;28;19936;-61
2022/05/28 01:56:00;;;;;;;;;;;;;;;14.26;46.21;100561.41;10371681;28;19927;-64
2022/05/28 02:01:03;;;;;;;;;;;;;;;14.27;46.82;100562.25;10371217;28;20043;-63
2022/05/28 02:06:05;;;;;;;;;;;;;;;14.23;46.78;100560.84;10373719;28;20643;-64
2022/05/28 02:11:11;;;;;;;;;;;;;;;14.16;46.98;100555.22;10374671;28;19925;-64
2022/05/28 02:16:17;;;;;;;;;;;;;;;14.07;47.77;100556.06;10374587;28;19925;-64
2022/05/28 02:21:34;;;;;;;;;;;;;;;14.17;47.77;100548.00;10370862;28;19943;-65
2022/05/28 02:26:38;;;;;;;;;;;;;;;14.07;46.89;100537.31;10370112;28;20028;-63
2022/05/28 02:31:43;;;;;;;;;;;;;;;13.98;47.95;100541.66;10372290;28;19931;-62
2022/05/28 02:36:44;;;;;;;;;;;;;;;14.01;47.86;100546.75;10370512;28;19917;-64
2022/05/28 02:41:46;;;;;;;;;;;;;;;13.96;47.25;100546.28;10368736;28;19917;-62
2022/05/28 02:46:47;;;;;;;;;;;;;;;13.93;47.86;100551.91;10372190;28;20106;-62
2022/05/28 02:51:49;;;;;;;;;;;;;;;13.93;48.04;100543.88;10372067;28;20302;-62
2022/05/28 02:56:51;;;;;;;;;;;;;;;13.82;48.02;100541.34;10374409;28;19963;-62
2022/05/28 03:01:52;;;;;;;;;;;;;;;13.68;48.42;100551.44;10374283;28;20423;-63
2022/05/28 03:06:54;;;;;;;;;;;;;;;13.65;49.24;100534.84;10373761;28;21630;-61
2022/05/28 03:11:55;;;;;;;;;;;;;;;13.40;48.25;100511.09;10371832;28;19960;-63
2022/05/28 03:16:57;;;;;;;;;;;;;;;13.58;49.08;100546.06;10374390;28;19929;-63
2022/05/28 03:21:58;;;;;;;;;;;;;;;13.63;48.66;100547.50;10372649;28;20875;-64
2022/05/28 03:27:00;;;;;;;;;;;;;;;13.60;49.19;100545.91;10372202;28;21495;-62
2022/05/28 03:32:01;;;;;;;;;;;;;;;13.64;48.12;100544.66;10373285;28;20012;-63
2022/05/28 03:37:02;;;;;;;;;;;;;;;13.51;48.33;100539.59;10378337;28;19987;-63
2022/05/28 03:42:04;;;;;;;;;;;;;;;13.35;49.01;100545.41;10382146;28;20399;-63
2022/05/28 03:47:06;;;;;;;;;;;;;;;13.40;49.23;100553.88;10387170;28;20466;-63
2022/05/28 03:52:08;;;;;;;;;;;;;;;13.50;48.86;100553.09;10372431;28;19929;-63
2022/05/28 03:57:14;;;;;;;;;;;;;;;13.55;48.81;100548.16;10372007;28;19947;-63
2022/05/28 04:02:15;;;;;;;;;;;;;;;13.53;48.96;100552.81;10378210;28;19965;-63
2022/05/28 04:07:17;;;;;;;;;;;;;;;13.35;49.36;100556.13;10394964;28;20003;-62
2022/05/28 04:12:18;;;;;;;;;;;;;;;13.34;49.41;100559.75;10393534;28;19929;-63
2022/05/28 04:17:20;;;;;;;;;;;;;;;13.41;50.53;100555.56;10383545;28;19936;-63
2022/05/28 04:22:21;;;;;;;;;;;;;;;13.46;49.16;100575.72;10409999;28;19921;-62
2022/05/28 04:27:23;;;;;;;;;;;;;;;13.54;50.00;100570.53;10380841;28;20012;-64
2022/05/28 04:32:24;;;;;;;;;;;;;;;13.57;49.39;100576.47;10376934;28;19931;-63
2022/05/28 04:37:25;;;;;;;;;;;;;;;13.72;49.01;100571.59;10382273;28;19929;-65
2022/05/28 04:42:27;;;;;;;;;;;;;;;13.42;49.26;100530.53;10376081;28;19934;-65
2022/05/28 04:47:28;;;;;;;;;;;;;;;13.58;50.31;100574.66;10377223;28;20774;-65
2022/05/28 04:52:29;;;;;;;;;;;;;;;13.46;49.69;100578.41;10377249;28;20339;-64
2022/05/28 04:57:31;;;;;;;;;;;;;;;13.57;50.18;100580.97;10375854;28;20071;-64
2022/05/28 05:02:32;;;;;;;;;;;;;;;13.72;50.47;100584.97;10374344;28;20004;-63
2022/05/28 05:07:33;;;;;;;;;;;;;;;13.98;49.29;100587.16;10375211;28;20014;-63
2022/05/28 05:12:35;;;;;;;;;;;;;;;13.82;48.21;100589.50;10374097;28;20111;-62
2022/05/28 05:17:42;;;;;;;;;;;;;;;13.64;48.97;100575.94;10374014;28;19928;-63
2022/05/28 05:22:44;;;;;;;;;;;;;;;13.71;49.18;100585.13;10372477;28;19921;-64
2022/05/28 05:27:45;;;;;;;;;;;;;;;13.73;48.84;100581.31;10370330;28;20011;-64
2022/05/28 05:32:46;;;;;;;;;;;;;;;13.60;50.20;100581.56;10368656;28;19931;-63
2022/05/28 05:37:48;;;;;;;;;;;;;;;13.64;49.33;100576.78;10371537;28;20398;-63
2022/05/28 05:42:49;;;;;;;;;;;;;;;13.74;49.60;100582.16;10373100;28;20012;-62
2022/05/28 05:47:50;;;;;;;;;;;;;;;13.72;49.57;100584.97;10370131;28;20595;-63
2022/05/28 05:52:52;;;;;;;;;;;;;;;13.75;48.88;100589.19;10356685;28;19929;-63
2022/05/28 05:57:53;;;;;;;;;;;;;;;13.81;49.38;100585.13;10335945;28;19939;-62
2022/05/28 06:02:54;;;;;;;;;;;;;;;13.84;48.91;100577.69;10345269;28;20371;-63
2022/05/28 06:07:56;;;;;;;;;;;;;;;13.90;49.62;100570.94;10358597;28;20016;-63
2022/05/28 06:12:57;;;;;;;;;;;;;;;14.01;49.26;100549.41;10344428;28;19925;-62
2022/05/28 06:17:59;;;;;;;;;;;;;;;14.15;49.16;100559.69;10344051;28;19925;-62
2022/05/28 06:23:00;;;;;;;;;;;;;;;14.17;49.52;100556.03;10346695;28;20116;-63
2022/05/28 06:28:02;;;;;;;;;;;;;;;14.24;48.60;100558.03;10346770;28;20015;-62
2022/05/28 06:33:03;;;;;;;;;;;;;;;14.35;48.57;100561.56;10343027;28;19929;-62
2022/05/28 06:38:05;;;;;;;;;;;;;;;14.64;48.40;100561.59;10363192;28;20398;-65
2022/05/28 06:43:06;;;;;;;;;;;;;;;14.67;48.28;100564.81;10344926;28;19959;-63
2022/05/28 06:48:07;;;;;;;;;;;;;;;14.57;48.53;100563.94;10343209;28;21360;-62
2022/05/28 06:53:09;;;;;;;;;;;;;;;14.62;50.33;100571.59;10341072;28;19929;-63
2022/05/28 06:58:10;;;;;;;;;;;;;;;14.88;49.10;100570.97;10338850;28;20127;-63
2022/05/28 07:03:13;;;;;;;;;;;;;;;14.93;48.41;100563.38;10340749;28;20564;-63
2022/05/28 07:08:15;;;;;;;;;;;;;;;15.12;49.85;100576.72;10341407;28;19964;-63
2022/05/28 07:13:17;;;;;;;;;;;;;;;15.31;47.95;100577.66;10343144;28;19931;-63
2022/05/28 07:18:19;;;;;;;;;;;;;;;14.90;48.54;100579.75;10343586;28;19921;-65
2022/05/28 07:23:20;;;;;;;;;;;;;;;15.37;49.40;100583.28;10343478;28;20431;-64
2022/05/28 07:28:28;;;;;;;;;;;;;;;15.42;45.96;100574.81;10340697;28;20445;-62
2022/05/28 07:33:31;;;;;;;;;;;;;;;15.55;45.50;100563.72;10334986;28;20019;-64
2022/05/28 07:38:33;;;;;;;;;;;;;;;15.33;43.93;100570.31;10338431;28;19929;-65
2022/05/28 07:43:38;;;;;;;;;;;;;;;15.27;44.17;100569.06;10337834;28;19979;-63
2022/05/28 07:48:39;;;;;;;;;;;;;;;15.36;43.70;100567.34;10334413;28;19924;-62
2022/05/28 07:53:41;;;;;;;;;;;;;;;15.35;44.32;100560.28;10348131;28;20047;-62
2022/05/28 07:58:43;;;;;;;;;;;;;;;15.61;44.37;100556.91;10333414;28;20454;-62
2022/05/28 08:03:44;;;;;;;;;;;;;;;15.32;44.81;100557.91;10331518;28;19924;-63
2022/05/28 08:08:46;;;;;;;;;;;;;;;15.55;44.90;100559.22;10342172;28;19931;-63
2022/05/28 08:13:48;;;;;;;;;;;;;;;15.63;44.39;100545.06;10340740;28;19955;-63
2022/05/28 08:18:50;;;;;;;;;;;;;;;15.75;44.61;100551.06;10339630;28;19925;-63
2022/05/28 08:23:51;;;;;;;;;;;;;;;15.87;44.34;100527.56;10338266;28;20044;-63
2022/05/28 08:28:53;;;;;;;;;;;;;;;16.55;43.41;100551.19;10340698;28;19935;-64
2022/05/28 08:33:55;;;;;;;;;;;;;;;16.36;43.19;100551.38;10341240;28;19998;-62
2022/05/28 08:38:56;;;;;;;;;;;;;;;16.47;43.07;100548.47;10340230;28;21540;-62
2022/05/28 08:44:26;;;;;;;;;;;;;;;16.38;43.57;100552.91;10336642;28;19929;-63
2022/05/28 08:49:29;;;;;;;;;;;;;;;16.65;43.26;100539.50;10317697;28;20019;-63
2022/05/28 08:54:30;;;;;;;;;;;;;;;16.69;42.15;100540.91;10338157;28;19924;-62
2022/05/28 08:59:37;;;;;;;;;;;;;;;16.62;43.06;100546.06;10339496;28;19924;-62
2022/05/28 09:04:40;;;;;;;;;;;;;;;16.77;41.50;100549.88;10339433;28;20653;-62
2022/05/28 09:09:44;;;;;;;;;;;;;;;17.55;40.20;100541.91;10337826;28;20036;-62
2022/05/28 09:14:45;;;;;;;;;;;;;;;17.39;41.09;100531.94;10337974;28;19929;-64
2022/05/28 09:19:48;;;;;;;;;;;;;;;17.30;41.33;100539.97;10335255;28;20383;-62
2022/05/28 09:24:49;;;;;;;;;;;;;;;17.58;38.41;100520.94;10337210;28;20566;-64
2022/05/28 09:29:57;;;;;;;;;;;;;;;17.68;38.71;100528.84;10343140;28;19925;-62
2022/05/28 09:35:07;;;;;;;;;;;;;;;18.01;38.24;100510.97;10337742;28;19925;-63
2022/05/28 09:40:17;;;;;;;;;;;;;;;17.85;37.89;100478.59;10338451;28;19925;-64
2022/05/28 09:45:26;;;;;;;;;;;;;;;17.39;39.56;100505.03;10336502;28;20141;-64
2022/05/28 09:50:29;;;;;;;;;;;;;;;17.30;41.27;100507.69;10350110;28;19941;-63
2022/05/28 09:55:30;;;;;;;;;;;;;;;17.59;38.42;100495.69;10337650;28;20343;-63
2022/05/28 10:00:32;;;;;;;;;;;;;;;17.66;38.11;100491.34;10347621;28;20007;-63
2022/05/28 10:05:41;;;;;;;;;;;;;;;17.91;37.64;100490.56;10336351;28;20008;-63
2022/05/28 10:10:51;;;;;;;;;;;;;;;17.99;34.63;100477.13;10337248;28;19925;-63
2022/05/28 10:15:57;;;;;;;;;;;;;;;17.98;33.73;100478.97;10334553;28;19928;-64
2022/05/28 10:21:07;;;;;;;;;;;;;;;18.17;33.62;100480.50;10335320;28;20011;-64
2022/05/28 10:26:19;;;;;;;;;;;;;;;17.93;35.12;100478.63;10332732;28;19928;-63
2022/05/28 10:31:23;;;;;;;;;;;;;;;18.04;35.82;100455.09;10331206;28;19974;-64
2022/05/28 10:36:30;;;;;;;;;;;;;;;18.64;35.02;100476.28;10333762;28;19940;-65
2022/05/28 10:41:31;;;;;;;;;;;;;;;19.25;33.32;100465.84;10336866;28;19921;-63
2022/05/28 10:46:35;;;;;;;;;;;;;;;20.19;32.72;100450.63;10337680;28;20912;-62
2022/05/28 10:51:48;;;;;;;;;;;;;;;19.86;31.80;100453.56;10354468;28;20457;-62
2022/05/28 10:57:03;;;;;;;;;;;;;;;20.14;30.51;100446.59;10339575;28;19949;-61
2022/05/28 11:02:44;;;;;;;;;;;;;;;20.19;30.19;100437.97;10311799;28;20445;-57
2022/05/28 11:07:51;;;;;;;;;;;;;;;20.11;28.78;100448.81;10109312;28;20730;-59
2022/05/28 11:12:55;;;;;;;;;;;;;;;20.29;28.01;100448.50;10278449;28;19934;-58
2022/05/28 11:17:57;;;;;;;;;;;;;;;19.71;28.63;100446.22;10316061;28;19996;-58
2022/05/28 11:23:08;;;;;;;;;;;;;;;19.94;29.82;100440.00;10315878;28;19941;-59
2022/05/28 11:28:12;;;;;;;;;;;;;;;20.82;29.41;100441.25;10321942;28;20407;-60
2022/05/28 11:33:25;;;;;;;;;;;;;;;21.04;27.76;100430.50;10320141;28;19955;-59
2022/05/28 11:38:41;;;;;;;;;;;;;;;20.11;28.24;100430.75;10320447;28;20035;-59
2022/05/28 11:43:47;;;;;;;;;;;;;;;19.58;30.28;100422.50;10311391;28;19936;-59
2022/05/28 11:54:22;;;;;;;;;;;;;;;19.23;26.72;100418.47;10316127;28;19934;-60
2022/05/28 11:59:26;;;;;;;;;;;;;;;19.69;26.73;100407.72;10300348;28;19929;-59
2022/05/28 12:04:30;;;;;;;;;;;;;;;19.16;27.49;100407.53;10288807;28;20679;-60
2022/05/28 12:09:33;;;;;;;;;;;;;;;19.57;29.11;100403.78;10290599;28;19926;-60
2022/05/28 12:14:37;;;;;;;;;;;;;;;19.88;28.97;100400.22;10290842;28;20012;-59
2022/05/28 12:19:43;;;;;;;;;;;;;;;19.50;29.08;100359.59;10284061;28;20633;-58
2022/05/28 12:24:54;;;;;;;;;;;;;;;19.59;29.23;100396.31;10285705;28;20107;-59
2022/05/28 12:30:01;;;;;;;;;;;;;;;19.67;29.37;100396.28;10285913;28;19933;-58
2022/05/28 12:35:03;;;;;;;;;;;;;;;19.61;29.63;100378.94;10287170;28;19977;-60
2022/05/28 12:40:13;;;;;;;;;;;;;;;19.98;29.43;100372.94;10294220;28;19985;-59
2022/05/28 12:45:24;;;;;;;;;;;;;;;19.71;27.29;100373.31;10292430;28;20051;-59
2022/05/28 12:50:30;;;;;;;;;;;;;;;19.22;28.54;100369.06;10291294;28;20028;-61
2022/05/28 12:55:36;;;;;;;;;;;;;;;19.07;27.52;100366.28;10299507;28;20034;-58
2022/05/28 13:00:57;;;;;;;;;;;;;;;18.81;28.44;100371.06;10299748;28;20270;-59
2022/05/28 13:06:03;;;;;;;;;;;;;;;19.25;29.13;100363.31;10287581;28;19929;-60
2022/05/28 13:11:06;;;;;;;;;;;;;;;19.94;29.78;100340.88;10283769;28;19932;-60
2022/05/28 13:16:26;;;;;;;;;;;;;;;20.55;29.54;100345.34;10286105;28;20503;-64
2022/05/28 13:21:47;;;;;;;;;;;;;;;20.73;29.55;100345.00;10287948;28;19951;-59
2022/05/28 13:26:54;;;;;;;;;;;;;;;20.11;29.18;100341.56;10287954;28;20067;-57
2022/05/28 13:31:59;;;;;;;;;;;;;;;19.84;30.49;100344.88;10279249;28;19929;-59
2022/05/28 13:37:01;;;;;;;;;;;;;;;19.68;31.22;100348.50;10293117;28;20387;-60
2022/05/28 13:42:03;;;;;;;;;;;;;;;19.90;30.11;100336.03;10290310;28;19940;-60
2022/05/28 13:47:04;;;;;;;;;;;;;;;19.90;29.30;100330.63;10287271;28;19937;-60
2022/05/28 13:52:09;;;;;;;;;;;;;;;19.91;28.22;100318.81;10287512;28;19939;-59
2022/05/28 13:57:12;;;;;;;;;;;;;;;19.82;26.90;100314.53;10286123;28;20422;-59
2022/05/28 14:02:16;;;;;;;;;;;;;;;20.06;27.89;100311.56;10284484;28;19956;-59
2022/05/28 14:07:23;;;;;;;;;;;;;;;20.07;27.72;100313.25;10278279;28;19926;-60
2022/05/28 14:12:29;;;;;;;;;;;;;;;19.66;29.06;100308.19;10283896;28;19992;-57
2022/05/28 14:17:31;;;;;;;;;;;;;;;19.47;28.03;100304.13;10280231;28;19972;-59
2022/05/28 14:22:32;;;;;;;;;;;;;;;19.57;26.97;100298.47;10286590;28;20084;-58
2022/05/28 14:27:34;;;;;;;;;;;;;;;19.49;26.42;100296.69;10285016;28;19983;-60
2022/05/28 14:32:40;;;;;;;;;;;;;;;19.38;26.76;100292.56;10284329;28;19925;-59
2022/05/28 14:37:41;;;;;;;;;;;;;;;19.20;27.40;100289.31;10285779;28;19965;-60
2022/05/28 14:42:45;;;;;;;;;;;;;;;18.91;27.85;100290.84;10281745;28;20338;-58
2022/05/28 14:47:49;;;;;;;;;;;;;;;19.11;28.54;100280.44;10284746;28;19941;-60
2022/05/28 14:52:51;;;;;;;;;;;;;;;19.24;28.04;100280.66;10287864;28;19955;-59
2022/05/28 14:58:01;;;;;;;;;;;;;;;19.17;27.98;100284.25;10284637;28;19979;-59
2022/05/28 15:03:09;;;;;;;;;;;;;;;18.85;29.03;100281.59;10282125;28;20446;-59
2022/05/28 15:08:26;;;;;;;;;;;;;;;18.83;29.23;100274.69;10281949;28;20134;-60
2022/05/28 15:13:31;;;;;;;;;;;;;;;19.16;29.92;100263.72;10279068;28;21965;-62
2022/05/28 15:18:34;;;;;;;;;;;;;;;19.46;29.63;100256.56;10278611;28;19936;-60
2022/05/28 15:23:36;;;;;;;;;;;;;;;19.46;29.42;100251.16;10277799;28;20192;-59
2022/05/28 15:28:37;;;;;;;;;;;;;;;19.26;28.84;100240.03;10275533;28;20025;-60
2022/05/28 15:33:39;;;;;;;;;;;;;;;19.13;28.83;100255.97;10278039;28;20030;-58
2022/05/28 15:38:40;;;;;;;;;;;;;;;19.19;29.22;100242.59;10289541;28;19933;-58
2022/05/28 15:43:42;;;;;;;;;;;;;;;19.49;29.30;100239.19;10295180;28;20435;-59
2022/05/28 15:48:43;;;;;;;;;;;;;;;19.38;28.83;100227.78;10283700;28;19936;-59
2022/05/28 15:53:44;;;;;;;;;;;;;;;19.15;28.62;100230.47;10284854;28;19972;-59
2022/05/28 15:58:46;;;;;;;;;;;;;;;19.08;29.20;100222.28;10288096;28;19936;-58
2022/05/28 16:03:48;;;;;;;;;;;;;;;19.12;29.20;100219.22;10290514;28;20502;-59
2022/05/28 16:08:50;;;;;;;;;;;;;;;18.90;29.78;100229.84;10285839;28;20497;-60
2022/05/28 16:13:52;;;;;;;;;;;;;;;18.94;30.44;100219.53;10288090;28;20039;-58
2022/05/28 16:18:54;;;;;;;;;;;;;;;19.02;30.16;100208.66;10280911;28;20015;-59
2022/05/28 16:23:56;;;;;;;;;;;;;;;18.69;28.53;100166.56;10286195;28;19929;-59
2022/05/28 16:28:59;;;;;;;;;;;;;;;18.64;29.66;100206.69;10282971;28;20144;-59
2022/05/28 16:34:01;;;;;;;;;;;;;;;18.55;30.51;100213.13;10284226;28;20990;-59
2022/05/28 16:39:03;;;;;;;;;;;;;;;18.45;31.19;100215.22;10285032;28;19952;-59
2022/05/28 16:44:06;;;;;;;;;;;;;;;18.24;31.31;100178.09;10288581;28;20414;-58
2022/05/28 16:49:07;;;;;;;;;;;;;;;18.51;31.70;100206.41;10288041;28;20896;-59
2022/05/28 16:54:09;;;;;;;;;;;;;;;18.63;30.96;100193.38;10279095;28;20671;-59
2022/05/28 16:59:11;;;;;;;;;;;;;;;18.73;30.99;100194.00;10279432;28;20492;-59
2022/05/28 17:04:15;;;;;;;;;;;;;;;18.52;30.95;100189.25;10211069;28;19974;-61
2022/05/28 17:09:17;;;;;;;;;;;;;;;18.67;31.42;100183.94;10270203;28;20487;-58
2022/05/28 17:14:18;;;;;;;;;;;;;;;18.51;29.58;100190.25;10292007;28;19941;-59
2022/05/28 17:19:20;;;;;;;;;;;;;;;18.46;40.96;100189.94;10278844;28;21311;-59
2022/05/28 17:24:23;;;;;;;;;;;;;;;18.85;34.94;100194.44;10281716;28;19984;-60
2022/05/28 17:29:29;;;;;;;;;;;;;;;18.87;34.59;100193.28;10276850;28;20824;-61
2022/05/28 17:34:30;;;;;;;;;;;;;;;18.92;34.63;100184.63;10301148;23;20883;-59
2022/05/28 17:39:32;;;;;;;;;;;;;;;18.93;33.84;100186.31;10321037;28;20411;-59
2022/05/28 17:44:33;;;;;;;;;;;;;;;18.94;33.05;100187.97;10328086;28;20045;-58
2022/05/28 17:49:34;;;;;;;;;;;;;;;18.70;32.29;100176.31;10322701;28;19929;-60
2022/05/28 17:54:36;;;;;;;;;;;;;;;18.60;33.59;100169.47;10328304;28;20328;-61
2022/05/28 17:59:37;;;;;;;;;;;;;;;18.53;33.37;100167.50;10323544;28;20443;-59
2022/05/28 18:04:38;;;;;;;;;;;;;;;18.14;33.58;100154.06;10326640;28;20076;-60
2022/05/28 18:09:42;;;;;;;;;;;;;;;18.24;33.85;100175.41;10322518;28;19933;-58
2022/05/28 18:14:44;;;;;;;;;;;;;;;18.24;33.99;100168.19;10320640;28;20699;-59
2022/05/28 18:19:48;;;;;;;;;;;;;;;18.07;33.87;100174.63;10320562;28;20343;-60
2022/05/28 18:24:50;;;;;;;;;;;;;;;17.87;34.42;100166.94;10325146;28;19975;-60
2022/05/28 18:29:51;;;;;;;;;;;;;;;17.79;34.59;100169.63;10320281;28;19983;-58
2022/05/28 18:34:53;;;;;;;;;;;;;;;17.74;34.67;100172.00;10322185;28;20238;-59
2022/05/28 18:39:54;;;;;;;;;;;;;;;17.63;34.60;100168.66;10324626;28;20705;-58
2022/05/28 18:44:56;;;;;;;;;;;;;;;17.48;35.00;100165.00;10324503;28;19929;-58
2022/05/28 18:49:57;;;;;;;;;;;;;;;17.45;34.44;100171.56;10328033;28;20012;-57
2022/05/28 18:54:59;;;;;;;;;;;;;;;17.36;34.68;100164.50;10322523;28;19937;-58
2022/05/28 19:00:01;;;;;;;;;;;;;;;17.28;35.22;100161.84;10322197;28;19933;-59
2022/05/28 19:05:03;;;;;;;;;;;;;;;17.21;35.04;100164.34;10319756;28;19947;-59
2022/05/28 19:10:06;;;;;;;;;;;;;;;17.12;35.23;100165.38;10322321;28;20332;-60
2022/05/28 19:15:09;;;;;;;;;;;;;;;17.05;35.79;100158.97;10331914;28;19944;-59
2022/05/28 19:20:11;;;;;;;;;;;;;;;16.98;36.47;100160.66;10333746;28;19929;-58
2022/05/28 19:30:34;;;;;;;;;;;;;;;16.98;37.05;100163.34;10332228;28;20883;-60
2022/05/28 19:35:38;;;;;;;;;;;;;;;16.98;36.90;100168.72;10325115;28;20792;-60
2022/05/28 19:40:41;;;;;;;;;;;;;;;16.94;36.86;100168.22;10325958;28;20030;-60
2022/05/28 19:45:45;;;;;;;;;;;;;;;16.87;36.90;100173.41;10326083;28;20518;-57
2022/05/28 19:50:46;;;;;;;;;;;;;;;16.80;37.47;100172.41;10329487;28;21098;-57
2022/05/28 19:55:48;;;;;;;;;;;;;;;16.75;37.47;100172.03;10331186;28;20153;-59
2022/05/28 20:00:49;;;;;;;;;;;;;;;16.73;36.64;100172.19;10332564;28;20027;-60
2022/05/28 20:05:53;;;;;;;;;;;;;;;16.64;37.45;100172.38;10329088;28;19939;-60
2022/05/28 20:10:54;;;;;;;;;;;;;;;16.59;37.46;100175.56;10327842;28;20648;-56
2022/05/28 20:15:56;;;;;;;;;;;;;;;16.54;37.62;100175.19;10331916;28;20012;-63
2022/05/28 20:20:57;;;;;;;;;;;;;;;16.51;37.77;100183.56;10330730;28;20007;-60
2022/05/28 20:26:00;;;;;;;;;;;;;;;16.44;38.20;100172.66;10327429;28;19939;-57
2022/05/28 20:31:03;;;;;;;;;;;;;;;16.38;37.81;100168.78;10327205;28;20766;-59
2022/05/28 20:36:06;;;;;;;;;;;;;;;16.22;37.74;100174.91;10321972;28;20123;-58
2022/05/28 20:41:08;;;;;;;;;;;;;;;16.09;38.44;100177.22;10323687;28;19967;-58
2022/05/28 20:46:11;;;;;;;;;;;;;;;16.03;38.60;100177.84;10323243;28;20031;-58
2022/05/28 20:51:13;;;;;;;;;;;;;;;15.93;38.69;100171.75;10323057;28;20404;-58
2022/05/28 20:56:21;;;;;;;;;;;;;;;15.87;39.34;100173.28;10322965;28;19929;-58
2022/05/28 21:01:29;;;;;;;;;;;;;;;15.84;39.27;100161.00;10325500;28;19929;-59
2022/05/28 21:06:39;;;;;;;;;;;;;;;15.82;39.82;100165.69;10321317;28;20684;-63
2022/05/28 21:11:41;;;;;;;;;;;;;;;15.77;39.87;100159.09;10320081;28;20480;-61
2022/05/28 21:16:51;;;;;;;;;;;;;;;15.34;39.96;100164.34;10320809;28;20024;-59
2022/05/28 21:21:53;;;;;;;;;;;;;;;15.29;41.07;100161.31;10324567;28;20183;-59
2022/05/28 21:32:22;;;;;;;;;;;;;;;15.23;41.13;100162.75;10319189;28;20316;-58
2022/05/28 21:37:23;;;;;;;;;;;;;;;15.19;41.73;100156.03;10324531;28;20478;-59
2022/05/28 21:42:25;;;;;;;;;;;;;;;15.20;41.09;100161.22;10321165;28;20112;-59
2022/05/28 21:47:26;;;;;;;;;;;;;;;15.12;40.97;100161.19;10321083;28;20528;-60
2022/05/28 21:52:31;;;;;;;;;;;;;;;15.07;41.03;100166.16;10320746;28;21750;-57
2022/05/28 21:57:33;;;;;;;;;;;;;;;15.05;41.07;100170.81;10324496;28;20087;-59
2022/05/28 22:02:34;;;;;;;;;;;;;;;14.96;41.63;100166.41;10321418;28;20028;-59
2022/05/28 22:07:37;;;;;;;;;;;;;;;14.93;41.53;100167.53;10321100;28;19933;-60
2022/05/28 22:12:39;;;;;;;;;;;;;;;14.44;41.79;100157.16;10317645;28;19929;-60
2022/05/28 22:17:40;;;;;;;;;;;;;;;14.48;42.62;100153.19;10320823;28;19936;-59
2022/05/28 22:22:42;;;;;;;;;;;;;;;14.53;42.40;100151.88;10321678;28;19960;-59
2022/05/28 22:27:43;;;;;;;;;;;;;;;14.54;42.05;100156.25;10317092;28;19929;-60
2022/05/28 22:32:45;;;;;;;;;;;;;;;14.50;42.18;100153.88;10317724;28;20914;-60
2022/05/28 22:37:46;;;;;;;;;;;;;;;14.50;42.43;100156.56;10314881;28;20032;-59
2022/05/28 22:42:48;;;;;;;;;;;;;;;14.50;42.10;100156.56;10314726;28;19939;-60
2022/05/28 22:47:51;;;;;;;;;;;;;;;14.48;42.73;100147.81;10316699;28;19941;-59
2022/05/28 22:52:54;;;;;;;;;;;;;;;14.42;42.32;100148.44;10316063;28;19935;-59
2022/05/28 22:57:55;;;;;;;;;;;;;;;14.38;42.71;100136.34;10315749;28;19934;-59
2022/05/28 23:02:59;;;;;;;;;;;;;;;14.35;42.90;100141.16;10315936;28;20477;-59
2022/05/28 23:08:03;;;;;;;;;;;;;;;14.20;43.17;100132.78;10317264;28;20064;-59
2022/05/28 23:13:08;;;;;;;;;;;;;;;14.13;43.63;100128.03;10296940;28;20016;-60
2022/05/28 23:18:14;;;;;;;;;;;;;;;14.11;43.39;100127.34;10314137;28;19933;-58
2022/05/28 23:28:38;;;;;;;;;;;;;;;13.79;44.33;100091.16;10358467;28;20048;-60
2022/05/28 23:33:44;;;;;;;;;;;;;;;14.00;44.35;100111.47;10358134;28;20009;-59
2022/05/28 23:38:45;;;;;;;;;;;;;;;13.93;44.72;100110.38;10364123;28;20406;-59
2022/05/28 23:43:47;;;;;;;;;;;;;;;13.88;44.81;100104.66;10358454;28;20023;-59
2022/05/28 23:48:50;;;;;;;;;;;;;;;13.84;44.67;100105.94;10362220;28;20305;-59
2022/05/28 23:53:51;;;;;;;;;;;;;;;13.83;45.36;100101.59;10359673;28;20383;-59
2022/05/28 23:58:53;;;;;;;;;;;;;;;13.82;45.60;100099.91;10363445;28;19952;-59
